sensor_id;sensor_type;location;lat;lon;timestamp;temperature;humidity
19261;DHT22;9764;48.114;11.670;2023-07-20T00:00:03;26.50;87.20
19261;DHT22;9764;48.114;11.670;2023-07-20T00:02:40;26.40;87.20
19261;DHT22;9764;48.114;11.670;2023-07-20T00:05:08;26.50;87.20
19261;DHT22;9764;48.114;11.670;2023-07-20T00:07:36;26.40;87.20
19261;DHT22;9764;48.114;11.670;2023-07-20T00:10:05;26.40;87.20
19261;DHT22;9764;48.114;11.670;2023-07-20T00:12:34;26.40;87.20
19261;DHT22;9764;48.114;11.670;2023-07-20T00:15:03;26.40;87.20
19261;DHT22;9764;48.114;11.670;2023-07-20T00:17:31;26.40;88.10
19261;DHT22;9764;48.114;11.670;2023-07-20T00:20:01;26.40;87.20
19261;DHT22;9764;48.114;11.670;2023-07-20T00:22:29;26.40;87.30
19261;DHT22;9764;48.114;11.670;2023-07-20T00:24:58;26.40;87.30
19261;DHT22;9764;48.114;11.670;2023-07-20T00:27:26;26.40;87.30
19261;DHT22;9764;48.114;11.670;2023-07-20T00:29:54;26.40;87.30
19261;DHT22;9764;48.114;11.670;2023-07-20T00:32:22;26.40;87.30
19261;DHT22;9764;48.114;11.670;2023-07-20T00:34:50;26.40;87.30
19261;DHT22;9764;48.114;11.670;2023-07-20T00:37:20;26.40;87.30
19261;DHT22;9764;48.114;11.670;2023-07-20T00:39:52;26.40;87.30
19261;DHT22;9764;48.114;11.670;2023-07-20T00:42:20;26.40;87.30
19261;DHT22;9764;48.114;11.670;2023-07-20T00:44:50;26.40;87.30
19261;DHT22;9764;48.114;11.670;2023-07-20T00:47:18;26.40;87.30
19261;DHT22;9764;48.114;11.670;2023-07-20T00:49:47;26.30;87.20
19261;DHT22;9764;48.114;11.670;2023-07-20T00:52:15;26.30;87.20
19261;DHT22;9764;48.114;11.670;2023-07-20T00:54:45;26.30;87.20
19261;DHT22;9764;48.114;11.670;2023-07-20T00:57:15;26.30;87.10
19261;DHT22;9764;48.114;11.670;2023-07-20T00:59:44;26.30;87.10
19261;DHT22;9764;48.114;11.670;2023-07-20T01:02:12;26.30;87.10
19261;DHT22;9764;48.114;11.670;2023-07-20T01:04:40;26.30;87.10
19261;DHT22;9764;48.114;11.670;2023-07-20T01:07:13;26.30;87.10
19261;DHT22;9764;48.114;11.670;2023-07-20T01:09:46;26.30;87.10
19261;DHT22;9764;48.114;11.670;2023-07-20T01:12:22;26.30;87.00
19261;DHT22;9764;48.114;11.670;2023-07-20T01:14:54;26.30;86.90
19261;DHT22;9764;48.114;11.670;2023-07-20T01:17:23;26.30;86.90
19261;DHT22;9764;48.114;11.670;2023-07-20T01:19:52;26.30;86.90
19261;DHT22;9764;48.114;11.670;2023-07-20T01:22:34;26.30;86.80
19261;DHT22;9764;48.114;11.670;2023-07-20T01:25:32;26.30;86.80
19261;DHT22;9764;48.114;11.670;2023-07-20T01:31:21;26.30;86.70
19261;DHT22;9764;48.114;11.670;2023-07-20T01:33:53;26.30;86.60
19261;DHT22;9764;48.114;11.670;2023-07-20T01:36:23;26.30;86.60
19261;DHT22;9764;48.114;11.670;2023-07-20T01:38:52;26.30;86.60
19261;DHT22;9764;48.114;11.670;2023-07-20T01:41:21;26.30;86.50
19261;DHT22;9764;48.114;11.670;2023-07-20T01:43:49;26.30;86.50
19261;DHT22;9764;48.114;11.670;2023-07-20T01:46:17;26.30;86.50
19261;DHT22;9764;48.114;11.670;2023-07-20T01:48:47;26.30;86.50
19261;DHT22;9764;48.114;11.670;2023-07-20T01:51:15;26.20;86.50
19261;DHT22;9764;48.114;11.670;2023-07-20T01:53:44;26.30;86.50
19261;DHT22;9764;48.114;11.670;2023-07-20T01:56:14;26.20;86.50
19261;DHT22;9764;48.114;11.670;2023-07-20T01:58:42;26.20;86.50
19261;DHT22;9764;48.114;11.670;2023-07-20T02:01:10;26.20;86.50
19261;DHT22;9764;48.114;11.670;2023-07-20T02:03:39;26.20;86.50
19261;DHT22;9764;48.114;11.670;2023-07-20T02:06:08;26.20;86.50
19261;DHT22;9764;48.114;11.670;2023-07-20T02:08:36;26.20;86.50
19261;DHT22;9764;48.114;11.670;2023-07-20T02:11:04;26.20;86.50
19261;DHT22;9764;48.114;11.670;2023-07-20T02:13:32;26.20;86.40
19261;DHT22;9764;48.114;11.670;2023-07-20T02:16:01;26.10;86.30
19261;DHT22;9764;48.114;11.670;2023-07-20T02:18:29;26.10;86.40
19261;DHT22;9764;48.114;11.670;2023-07-20T02:20:57;26.20;86.50
19261;DHT22;9764;48.114;11.670;2023-07-20T02:23:27;26.20;86.50
19261;DHT22;9764;48.114;11.670;2023-07-20T02:25:55;26.20;86.50
19261;DHT22;9764;48.114;11.670;2023-07-20T02:28:23;26.20;86.50
19261;DHT22;9764;48.114;11.670;2023-07-20T02:30:52;26.20;86.50
19261;DHT22;9764;48.114;11.670;2023-07-20T02:33:20;26.10;86.40
19261;DHT22;9764;48.114;11.670;2023-07-20T02:35:48;26.10;86.30
19261;DHT22;9764;48.114;11.670;2023-07-20T02:38:18;26.10;86.30
19261;DHT22;9764;48.114;11.670;2023-07-20T02:40:47;26.10;86.30
19261;DHT22;9764;48.114;11.670;2023-07-20T02:43:15;26.10;86.30
19261;DHT22;9764;48.114;11.670;2023-07-20T02:45:45;26.10;86.30
19261;DHT22;9764;48.114;11.670;2023-07-20T02:48:14;26.10;86.30
19261;DHT22;9764;48.114;11.670;2023-07-20T02:50:43;26.10;86.30
19261;DHT22;9764;48.114;11.670;2023-07-20T02:53:12;26.10;86.30
19261;DHT22;9764;48.114;11.670;2023-07-20T02:55:40;26.10;86.30
19261;DHT22;9764;48.114;11.670;2023-07-20T02:58:09;26.10;86.20
19261;DHT22;9764;48.114;11.670;2023-07-20T03:00:38;26.10;86.20
19261;DHT22;9764;48.114;11.670;2023-07-20T03:03:06;26.10;86.20
19261;DHT22;9764;48.114;11.670;2023-07-20T03:05:37;26.00;86.00
19261;DHT22;9764;48.114;11.670;2023-07-20T03:08:07;26.00;85.90
19261;DHT22;9764;48.114;11.670;2023-07-20T03:10:39;26.00;85.80
19261;DHT22;9764;48.114;11.670;2023-07-20T03:13:09;26.00;85.70
19261;DHT22;9764;48.114;11.670;2023-07-20T03:15:38;26.00;85.50
19261;DHT22;9764;48.114;11.670;2023-07-20T03:18:06;26.00;85.40
19261;DHT22;9764;48.114;11.670;2023-07-20T03:20:35;26.00;85.40
19261;DHT22;9764;48.114;11.670;2023-07-20T03:23:04;25.90;85.50
19261;DHT22;9764;48.114;11.670;2023-07-20T03:25:33;25.90;85.50
19261;DHT22;9764;48.114;11.670;2023-07-20T03:28:04;26.00;85.60
19261;DHT22;9764;48.114;11.670;2023-07-20T03:30:34;25.90;85.40
19261;DHT22;9764;48.114;11.670;2023-07-20T03:33:03;25.90;85.40
19261;DHT22;9764;48.114;11.670;2023-07-20T03:35:31;25.90;85.40
19261;DHT22;9764;48.114;11.670;2023-07-20T03:38:00;25.90;85.50
19261;DHT22;9764;48.114;11.670;2023-07-20T03:40:28;25.90;85.60
19261;DHT22;9764;48.114;11.670;2023-07-20T03:42:56;25.80;85.40
19261;DHT22;9764;48.114;11.670;2023-07-20T03:45:24;25.80;85.30
19261;DHT22;9764;48.114;11.670;2023-07-20T03:47:54;25.80;85.40
19261;DHT22;9764;48.114;11.670;2023-07-20T03:50:23;25.80;85.30
19261;DHT22;9764;48.114;11.670;2023-07-20T03:52:51;25.40;85.40
19261;DHT22;9764;48.114;11.670;2023-07-20T03:55:19;24.80;86.70
19261;DHT22;9764;48.114;11.670;2023-07-20T03:57:47;24.30;88.20
19261;DHT22;9764;48.114;11.670;2023-07-20T04:00:18;24.10;88.90
19261;DHT22;9764;48.114;11.670;2023-07-20T04:02:46;23.90;89.20
19261;DHT22;9764;48.114;11.670;2023-07-20T04:05:16;23.70;89.80
19261;DHT22;9764;48.114;11.670;2023-07-20T04:07:44;23.60;90.00
19261;DHT22;9764;48.114;11.670;2023-07-20T04:10:13;23.50;90.20
19261;DHT22;9764;48.114;11.670;2023-07-20T04:12:41;23.30;90.50
19261;DHT22;9764;48.114;11.670;2023-07-20T04:15:11;23.20;90.70
19261;DHT22;9764;48.114;11.670;2023-07-20T04:17:40;23.20;90.80
19261;DHT22;9764;48.114;11.670;2023-07-20T04:20:09;23.10;91.00
19261;DHT22;9764;48.114;11.670;2023-07-20T04:22:39;23.10;91.10
19261;DHT22;9764;48.114;11.670;2023-07-20T04:25:11;23.00;91.20
19261;DHT22;9764;48.114;11.670;2023-07-20T04:27:39;23.00;91.20
19261;DHT22;9764;48.114;11.670;2023-07-20T04:30:08;23.00;91.30
19261;DHT22;9764;48.114;11.670;2023-07-20T04:32:37;22.90;91.40
19261;DHT22;9764;48.114;11.670;2023-07-20T04:35:17;22.90;91.50
19261;DHT22;9764;48.114;11.670;2023-07-20T04:37:49;22.90;91.60
19261;DHT22;9764;48.114;11.670;2023-07-20T04:40:19;22.80;91.70
19261;DHT22;9764;48.114;11.670;2023-07-20T04:42:48;22.80;91.80
19261;DHT22;9764;48.114;11.670;2023-07-20T04:45:17;22.80;91.90
19261;DHT22;9764;48.114;11.670;2023-07-20T04:47:46;22.80;92.00
19261;DHT22;9764;48.114;11.670;2023-07-20T04:50:14;22.90;91.90
19261;DHT22;9764;48.114;11.670;2023-07-20T04:52:43;22.90;91.70
19261;DHT22;9764;48.114;11.670;2023-07-20T04:55:17;23.00;91.70
19261;DHT22;9764;48.114;11.670;2023-07-20T04:57:45;22.90;91.90
19261;DHT22;9764;48.114;11.670;2023-07-20T05:00:15;22.80;92.20
19261;DHT22;9764;48.114;11.670;2023-07-20T05:02:44;22.70;92.30
19261;DHT22;9764;48.114;11.670;2023-07-20T05:05:15;22.70;92.40
19261;DHT22;9764;48.114;11.670;2023-07-20T05:07:43;22.80;92.40
19261;DHT22;9764;48.114;11.670;2023-07-20T05:10:11;22.80;92.20
19261;DHT22;9764;48.114;11.670;2023-07-20T05:12:41;22.80;92.20
19261;DHT22;9764;48.114;11.670;2023-07-20T05:15:09;22.80;92.50
19261;DHT22;9764;48.114;11.670;2023-07-20T05:17:39;22.70;92.60
19261;DHT22;9764;48.114;11.670;2023-07-20T05:20:08;22.70;92.60
19261;DHT22;9764;48.114;11.670;2023-07-20T05:22:39;22.70;92.50
19261;DHT22;9764;48.114;11.670;2023-07-20T05:25:08;22.80;92.30
19261;DHT22;9764;48.114;11.670;2023-07-20T05:27:37;22.80;92.20
19261;DHT22;9764;48.114;11.670;2023-07-20T05:30:07;22.70;92.50
19261;DHT22;9764;48.114;11.670;2023-07-20T05:32:36;22.70;92.60
19261;DHT22;9764;48.114;11.670;2023-07-20T05:35:05;22.80;92.50
19261;DHT22;9764;48.114;11.670;2023-07-20T05:37:33;22.80;92.40
19261;DHT22;9764;48.114;11.670;2023-07-20T05:40:01;22.80;92.30
19261;DHT22;9764;48.114;11.670;2023-07-20T05:42:29;22.70;92.50
19261;DHT22;9764;48.114;11.670;2023-07-20T05:44:58;22.70;92.70
19261;DHT22;9764;48.114;11.670;2023-07-20T05:47:28;22.70;92.60
19261;DHT22;9764;48.114;11.670;2023-07-20T05:49:56;22.70;92.60
19261;DHT22;9764;48.114;11.670;2023-07-20T05:52:24;22.70;93.00
19261;DHT22;9764;48.114;11.670;2023-07-20T05:54:52;22.70;92.90
19261;DHT22;9764;48.114;11.670;2023-07-20T05:57:21;22.70;93.50
19261;DHT22;9764;48.114;11.670;2023-07-20T05:59:49;22.60;93.50
19261;DHT22;9764;48.114;11.670;2023-07-20T06:02:17;22.60;93.80
19261;DHT22;9764;48.114;11.670;2023-07-20T06:04:46;22.70;94.40
19261;DHT22;9764;48.114;11.670;2023-07-20T06:07:15;22.70;94.60
19261;DHT22;9764;48.114;11.670;2023-07-20T06:09:43;22.80;93.10
19261;DHT22;9764;48.114;11.670;2023-07-20T06:12:11;22.70;95.30
19261;DHT22;9764;48.114;11.670;2023-07-20T06:14:39;22.70;95.30
19261;DHT22;9764;48.114;11.670;2023-07-20T06:17:07;22.80;94.60
19261;DHT22;9764;48.114;11.670;2023-07-20T06:19:35;22.90;94.90
19261;DHT22;9764;48.114;11.670;2023-07-20T06:22:05;22.90;94.90
19261;DHT22;9764;48.114;11.670;2023-07-20T06:24:33;22.90;92.40
19261;DHT22;9764;48.114;11.670;2023-07-20T06:27:02;22.90;93.60
19261;DHT22;9764;48.114;11.670;2023-07-20T06:29:30;22.90;95.30
19261;DHT22;9764;48.114;11.670;2023-07-20T06:31:58;23.00;95.40
19261;DHT22;9764;48.114;11.670;2023-07-20T06:34:26;23.00;95.00
19261;DHT22;9764;48.114;11.670;2023-07-20T06:36:55;23.00;95.10
19261;DHT22;9764;48.114;11.670;2023-07-20T06:39:24;23.10;95.90
19261;DHT22;9764;48.114;11.670;2023-07-20T06:41:55;23.00;93.60
19261;DHT22;9764;48.114;11.670;2023-07-20T06:44:23;22.90;95.60
19261;DHT22;9764;48.114;11.670;2023-07-20T06:46:51;22.90;94.60
19261;DHT22;9764;48.114;11.670;2023-07-20T06:49:26;22.90;94.10
19261;DHT22;9764;48.114;11.670;2023-07-20T06:51:55;23.00;94.30
19261;DHT22;9764;48.114;11.670;2023-07-20T06:54:24;23.10;94.30
19261;DHT22;9764;48.114;11.670;2023-07-20T06:56:53;23.10;93.90
19261;DHT22;9764;48.114;11.670;2023-07-20T06:59:24;23.20;93.70
19261;DHT22;9764;48.114;11.670;2023-07-20T07:01:52;23.20;91.80
19261;DHT22;9764;48.114;11.670;2023-07-20T07:04:20;23.40;91.60
19261;DHT22;9764;48.114;11.670;2023-07-20T07:06:48;23.50;90.90
19261;DHT22;9764;48.114;11.670;2023-07-20T07:09:16;23.70;91.00
19261;DHT22;9764;48.114;11.670;2023-07-20T07:11:46;23.90;91.50
19261;DHT22;9764;48.114;11.670;2023-07-20T07:14:14;24.10;90.70
19261;DHT22;9764;48.114;11.670;2023-07-20T07:16:42;24.20;91.40
19261;DHT22;9764;48.114;11.670;2023-07-20T07:19:11;24.30;91.40
19261;DHT22;9764;48.114;11.670;2023-07-20T07:21:39;24.40;90.40
19261;DHT22;9764;48.114;11.670;2023-07-20T07:24:07;24.50;90.00
19261;DHT22;9764;48.114;11.670;2023-07-20T07:26:37;24.60;90.00
19261;DHT22;9764;48.114;11.670;2023-07-20T07:29:07;24.70;90.00
19261;DHT22;9764;48.114;11.670;2023-07-20T07:31:35;24.80;90.10
19261;DHT22;9764;48.114;11.670;2023-07-20T07:34:04;24.90;90.00
19261;DHT22;9764;48.114;11.670;2023-07-20T07:36:33;25.00;90.30
19261;DHT22;9764;48.114;11.670;2023-07-20T07:39:01;25.10;90.80
19261;DHT22;9764;48.114;11.670;2023-07-20T07:41:49;25.20;91.60
19261;DHT22;9764;48.114;11.670;2023-07-20T07:44:19;25.20;91.20
19261;DHT22;9764;48.114;11.670;2023-07-20T07:46:48;25.30;92.30
19261;DHT22;9764;48.114;11.670;2023-07-20T07:49:16;25.40;91.80
19261;DHT22;9764;48.114;11.670;2023-07-20T07:51:46;25.40;92.90
19261;DHT22;9764;48.114;11.670;2023-07-20T07:54:14;25.50;91.90
19261;DHT22;9764;48.114;11.670;2023-07-20T07:56:42;25.50;91.00
19261;DHT22;9764;48.114;11.670;2023-07-20T07:59:11;25.60;91.30
19261;DHT22;9764;48.114;11.670;2023-07-20T08:01:40;25.70;92.30
19261;DHT22;9764;48.114;11.670;2023-07-20T08:04:08;25.80;91.20
19261;DHT22;9764;48.114;11.670;2023-07-20T08:06:37;25.80;91.10
19261;DHT22;9764;48.114;11.670;2023-07-20T08:09:05;25.90;92.00
19261;DHT22;9764;48.114;11.670;2023-07-20T08:11:33;26.00;94.00
19261;DHT22;9764;48.114;11.670;2023-07-20T08:14:01;26.00;88.40
19261;DHT22;9764;48.114;11.670;2023-07-20T08:16:29;26.10;88.60
19261;DHT22;9764;48.114;11.670;2023-07-20T08:18:59;26.20;88.50
19261;DHT22;9764;48.114;11.670;2023-07-20T08:21:29;26.30;88.80
19261;DHT22;9764;48.114;11.670;2023-07-20T08:23:57;26.40;88.60
19261;DHT22;9764;48.114;11.670;2023-07-20T08:26:25;26.40;88.90
19261;DHT22;9764;48.114;11.670;2023-07-20T08:28:54;26.40;88.70
19261;DHT22;9764;48.114;11.670;2023-07-20T08:31:22;26.50;89.00
19261;DHT22;9764;48.114;11.670;2023-07-20T08:33:50;26.40;88.60
19261;DHT22;9764;48.114;11.670;2023-07-20T08:36:20;26.40;89.40
19261;DHT22;9764;48.114;11.670;2023-07-20T08:38:48;26.50;89.30
19261;DHT22;9764;48.114;11.670;2023-07-20T08:41:17;26.50;89.40
19261;DHT22;9764;48.114;11.670;2023-07-20T08:43:46;26.50;89.90
19261;DHT22;9764;48.114;11.670;2023-07-20T08:46:16;26.50;90.00
19261;DHT22;9764;48.114;11.670;2023-07-20T08:48:45;26.60;90.30
19261;DHT22;9764;48.114;11.670;2023-07-20T08:51:14;26.60;90.10
19261;DHT22;9764;48.114;11.670;2023-07-20T08:53:45;26.70;90.30
19261;DHT22;9764;48.114;11.670;2023-07-20T08:56:14;26.80;90.10
19261;DHT22;9764;48.114;11.670;2023-07-20T08:58:44;26.80;90.90
19261;DHT22;9764;48.114;11.670;2023-07-20T09:01:12;26.80;91.40
19261;DHT22;9764;48.114;11.670;2023-07-20T09:03:41;26.90;92.10
19261;DHT22;9764;48.114;11.670;2023-07-20T09:06:11;26.90;92.10
19261;DHT22;9764;48.114;11.670;2023-07-20T09:08:40;27.00;92.70
19261;DHT22;9764;48.114;11.670;2023-07-20T09:11:12;27.00;90.60
19261;DHT22;9764;48.114;11.670;2023-07-20T09:13:40;27.00;93.80
19261;DHT22;9764;48.114;11.670;2023-07-20T09:16:09;27.10;91.80
19261;DHT22;9764;48.114;11.670;2023-07-20T09:18:41;27.20;90.40
19261;DHT22;9764;48.114;11.670;2023-07-20T09:21:10;27.20;90.90
19261;DHT22;9764;48.114;11.670;2023-07-20T09:23:38;27.20;90.60
19261;DHT22;9764;48.114;11.670;2023-07-20T09:26:11;27.20;90.50
19261;DHT22;9764;48.114;11.670;2023-07-20T09:28:47;27.20;90.50
19261;DHT22;9764;48.114;11.670;2023-07-20T09:31:16;27.00;88.60
19261;DHT22;9764;48.114;11.670;2023-07-20T09:33:46;27.30;88.60
19261;DHT22;9764;48.114;11.670;2023-07-20T09:36:17;27.30;90.10
19261;DHT22;9764;48.114;11.670;2023-07-20T09:39:05;27.40;88.90
19261;DHT22;9764;48.114;11.670;2023-07-20T09:41:41;27.40;90.20
19261;DHT22;9764;48.114;11.670;2023-07-20T09:44:14;27.40;88.60
19261;DHT22;9764;48.114;11.670;2023-07-20T09:46:46;27.40;90.80
19261;DHT22;9764;48.114;11.670;2023-07-20T09:49:18;27.40;90.30
19261;DHT22;9764;48.114;11.670;2023-07-20T09:51:49;27.50;91.00
19261;DHT22;9764;48.114;11.670;2023-07-20T09:54:18;27.50;90.60
19261;DHT22;9764;48.114;11.670;2023-07-20T09:56:51;27.60;91.10
19261;DHT22;9764;48.114;11.670;2023-07-20T09:59:19;27.60;87.70
19261;DHT22;9764;48.114;11.670;2023-07-20T10:01:49;27.60;87.40
19261;DHT22;9764;48.114;11.670;2023-07-20T10:04:21;27.60;87.30
19261;DHT22;9764;48.114;11.670;2023-07-20T10:06:52;27.70;87.30
19261;DHT22;9764;48.114;11.670;2023-07-20T10:09:24;27.60;87.50
19261;DHT22;9764;48.114;11.670;2023-07-20T10:11:56;27.60;87.50
19261;DHT22;9764;48.114;11.670;2023-07-20T10:14:47;27.60;87.80
19261;DHT22;9764;48.114;11.670;2023-07-20T10:17:21;27.60;87.50
19261;DHT22;9764;48.114;11.670;2023-07-20T10:19:54;27.70;87.60
19261;DHT22;9764;48.114;11.670;2023-07-20T10:22:25;27.70;87.70
19261;DHT22;9764;48.114;11.670;2023-07-20T10:24:54;27.70;86.80
19261;DHT22;9764;48.114;11.670;2023-07-20T10:27:27;27.70;87.20
19261;DHT22;9764;48.114;11.670;2023-07-20T10:29:57;27.60;89.10
19261;DHT22;9764;48.114;11.670;2023-07-20T10:32:26;27.60;90.70
19261;DHT22;9764;48.114;11.670;2023-07-20T10:34:56;27.50;86.00
19261;DHT22;9764;48.114;11.670;2023-07-20T10:37:47;27.50;86.40
19261;DHT22;9764;48.114;11.670;2023-07-20T10:40:30;27.50;85.00
19261;DHT22;9764;48.114;11.670;2023-07-20T10:43:02;27.50;84.30
19261;DHT22;9764;48.114;11.670;2023-07-20T10:45:40;27.50;85.10
19261;DHT22;9764;48.114;11.670;2023-07-20T10:48:16;27.50;81.20
19261;DHT22;9764;48.114;11.670;2023-07-20T10:53:29;27.60;85.20
19261;DHT22;9764;48.114;11.670;2023-07-20T10:56:06;27.50;84.70
19261;DHT22;9764;48.114;11.670;2023-07-20T10:58:36;27.50;84.10
19261;DHT22;9764;48.114;11.670;2023-07-20T11:01:04;27.40;84.40
19261;DHT22;9764;48.114;11.670;2023-07-20T11:03:34;27.50;85.00
19261;DHT22;9764;48.114;11.670;2023-07-20T11:06:31;27.50;84.60
19261;DHT22;9764;48.114;11.670;2023-07-20T11:09:07;27.50;85.60
19261;DHT22;9764;48.114;11.670;2023-07-20T11:11:38;27.60;85.30
19261;DHT22;9764;48.114;11.670;2023-07-20T11:14:09;27.60;85.30
19261;DHT22;9764;48.114;11.670;2023-07-20T11:16:39;27.60;85.30
19261;DHT22;9764;48.114;11.670;2023-07-20T11:19:15;27.60;85.10
19261;DHT22;9764;48.114;11.670;2023-07-20T11:21:51;27.70;84.80
19261;DHT22;9764;48.114;11.670;2023-07-20T11:24:29;27.70;85.10
19261;DHT22;9764;48.114;11.670;2023-07-20T11:26:58;27.80;85.70
19261;DHT22;9764;48.114;11.670;2023-07-20T11:29:28;27.80;85.40
19261;DHT22;9764;48.114;11.670;2023-07-20T11:32:01;27.80;85.40
19261;DHT22;9764;48.114;11.670;2023-07-20T11:34:32;27.80;85.90
19261;DHT22;9764;48.114;11.670;2023-07-20T11:37:01;27.90;86.60
19261;DHT22;9764;48.114;11.670;2023-07-20T11:39:33;27.90;86.70
19261;DHT22;9764;48.114;11.670;2023-07-20T11:42:03;27.90;86.80
19261;DHT22;9764;48.114;11.670;2023-07-20T11:44:33;27.90;87.00
19261;DHT22;9764;48.114;11.670;2023-07-20T11:47:02;27.90;87.40
19261;DHT22;9764;48.114;11.670;2023-07-20T11:49:35;27.90;87.50
19261;DHT22;9764;48.114;11.670;2023-07-20T11:52:05;28.00;87.70
19261;DHT22;9764;48.114;11.670;2023-07-20T11:54:35;28.00;87.10
19261;DHT22;9764;48.114;11.670;2023-07-20T11:57:04;28.00;86.90
19261;DHT22;9764;48.114;11.670;2023-07-20T11:59:34;28.00;87.20
19261;DHT22;9764;48.114;11.670;2023-07-20T12:02:02;28.00;87.40
19261;DHT22;9764;48.114;11.670;2023-07-20T12:04:31;28.10;88.30
19261;DHT22;9764;48.114;11.670;2023-07-20T12:07:00;28.10;87.30
19261;DHT22;9764;48.114;11.670;2023-07-20T12:09:28;28.10;86.50
19261;DHT22;9764;48.114;11.670;2023-07-20T12:12:12;28.10;85.50
19261;DHT22;9764;48.114;11.670;2023-07-20T12:14:41;28.20;85.80
19261;DHT22;9764;48.114;11.670;2023-07-20T12:17:09;28.20;86.50
19261;DHT22;9764;48.114;11.670;2023-07-20T12:19:38;28.20;87.50
19261;DHT22;9764;48.114;11.670;2023-07-20T12:22:07;28.20;88.30
19261;DHT22;9764;48.114;11.670;2023-07-20T12:24:36;28.20;88.80
19261;DHT22;9764;48.114;11.670;2023-07-20T12:27:04;28.20;88.90
19261;DHT22;9764;48.114;11.670;2023-07-20T12:29:33;28.20;88.80
19261;DHT22;9764;48.114;11.670;2023-07-20T12:32:05;28.20;87.70
19261;DHT22;9764;48.114;11.670;2023-07-20T12:34:34;28.20;86.40
19261;DHT22;9764;48.114;11.670;2023-07-20T12:37:03;28.20;86.40
19261;DHT22;9764;48.114;11.670;2023-07-20T12:39:32;28.20;86.20
19261;DHT22;9764;48.114;11.670;2023-07-20T12:42:00;28.10;86.10
19261;DHT22;9764;48.114;11.670;2023-07-20T12:44:28;28.20;86.10
19261;DHT22;9764;48.114;11.670;2023-07-20T12:46:57;28.10;86.00
19261;DHT22;9764;48.114;11.670;2023-07-20T12:49:26;28.10;85.80
19261;DHT22;9764;48.114;11.670;2023-07-20T12:51:54;28.10;85.80
19261;DHT22;9764;48.114;11.670;2023-07-20T12:54:22;28.10;85.70
19261;DHT22;9764;48.114;11.670;2023-07-20T12:56:51;28.10;85.80
19261;DHT22;9764;48.114;11.670;2023-07-20T12:59:22;28.10;85.30
19261;DHT22;9764;48.114;11.670;2023-07-20T13:01:50;28.10;85.70
19261;DHT22;9764;48.114;11.670;2023-07-20T13:04:18;28.10;85.40
19261;DHT22;9764;48.114;11.670;2023-07-20T13:06:48;28.10;85.30
19261;DHT22;9764;48.114;11.670;2023-07-20T13:09:16;28.10;85.30
19261;DHT22;9764;48.114;11.670;2023-07-20T13:11:44;28.10;85.30
19261;DHT22;9764;48.114;11.670;2023-07-20T13:14:12;28.10;85.50
19261;DHT22;9764;48.114;11.670;2023-07-20T13:16:41;28.10;85.30
19261;DHT22;9764;48.114;11.670;2023-07-20T13:19:09;28.10;85.10
19261;DHT22;9764;48.114;11.670;2023-07-20T13:21:37;28.10;85.00
19261;DHT22;9764;48.114;11.670;2023-07-20T13:24:08;28.10;84.20
19261;DHT22;9764;48.114;11.670;2023-07-20T13:26:37;28.10;85.10
19261;DHT22;9764;48.114;11.670;2023-07-20T13:29:05;28.10;85.10
19261;DHT22;9764;48.114;11.670;2023-07-20T13:31:33;28.10;85.80
19261;DHT22;9764;48.114;11.670;2023-07-20T13:34:02;28.10;87.00
19261;DHT22;9764;48.114;11.670;2023-07-20T13:36:30;28.10;88.00
19261;DHT22;9764;48.114;11.670;2023-07-20T13:38:58;28.20;88.60
19261;DHT22;9764;48.114;11.670;2023-07-20T13:41:28;28.20;89.50
19261;DHT22;9764;48.114;11.670;2023-07-20T13:43:59;28.20;89.40
19261;DHT22;9764;48.114;11.670;2023-07-20T13:46:27;28.20;89.70
19261;DHT22;9764;48.114;11.670;2023-07-20T13:48:58;28.30;90.10
19261;DHT22;9764;48.114;11.670;2023-07-20T13:51:26;28.30;90.20
19261;DHT22;9764;48.114;11.670;2023-07-20T13:53:54;28.30;90.20
19261;DHT22;9764;48.114;11.670;2023-07-20T13:56:23;28.30;90.50
19261;DHT22;9764;48.114;11.670;2023-07-20T13:58:53;28.30;90.90
19261;DHT22;9764;48.114;11.670;2023-07-20T14:01:24;28.30;91.10
19261;DHT22;9764;48.114;11.670;2023-07-20T14:03:56;28.40;91.10
19261;DHT22;9764;48.114;11.670;2023-07-20T14:06:31;28.40;91.40
19261;DHT22;9764;48.114;11.670;2023-07-20T14:09:00;28.40;91.50
19261;DHT22;9764;48.114;11.670;2023-07-20T14:11:28;28.40;91.40
19261;DHT22;9764;48.114;11.670;2023-07-20T14:14:00;28.40;91.30
19261;DHT22;9764;48.114;11.670;2023-07-20T14:16:29;28.40;91.50
19261;DHT22;9764;48.114;11.670;2023-07-20T14:18:59;28.50;91.70
19261;DHT22;9764;48.114;11.670;2023-07-20T14:21:28;28.50;91.70
19261;DHT22;9764;48.114;11.670;2023-07-20T14:23:58;28.40;91.50
19261;DHT22;9764;48.114;11.670;2023-07-20T14:26:28;28.50;91.50
19261;DHT22;9764;48.114;11.670;2023-07-20T14:29:01;28.50;91.70
19261;DHT22;9764;48.114;11.670;2023-07-20T14:31:29;28.50;91.60
19261;DHT22;9764;48.114;11.670;2023-07-20T14:33:59;28.50;90.00
19261;DHT22;9764;48.114;11.670;2023-07-20T14:36:27;28.40;88.50
19261;DHT22;9764;48.114;11.670;2023-07-20T14:38:56;28.40;88.60
19261;DHT22;9764;48.114;11.670;2023-07-20T14:41:25;28.40;88.70
19261;DHT22;9764;48.114;11.670;2023-07-20T14:43:53;28.40;88.60
19261;DHT22;9764;48.114;11.670;2023-07-20T14:46:24;28.30;88.30
19261;DHT22;9764;48.114;11.670;2023-07-20T14:48:52;28.30;88.10
19261;DHT22;9764;48.114;11.670;2023-07-20T14:51:20;28.30;87.90
19261;DHT22;9764;48.114;11.670;2023-07-20T14:53:49;28.30;87.70
19261;DHT22;9764;48.114;11.670;2023-07-20T14:56:17;28.20;87.20
19261;DHT22;9764;48.114;11.670;2023-07-20T14:58:45;28.20;87.00
19261;DHT22;9764;48.114;11.670;2023-07-20T15:01:13;28.20;86.90
19261;DHT22;9764;48.114;11.670;2023-07-20T15:03:43;28.20;87.00
19261;DHT22;9764;48.114;11.670;2023-07-20T15:06:11;28.10;86.30
19261;DHT22;9764;48.114;11.670;2023-07-20T15:08:39;28.10;86.50
19261;DHT22;9764;48.114;11.670;2023-07-20T15:11:07;28.10;86.90
19261;DHT22;9764;48.114;11.670;2023-07-20T15:13:36;28.10;86.60
19261;DHT22;9764;48.114;11.670;2023-07-20T15:16:04;28.10;86.30
19261;DHT22;9764;48.114;11.670;2023-07-20T15:18:32;28.00;86.00
19261;DHT22;9764;48.114;11.670;2023-07-20T15:21:15;28.10;85.70
19261;DHT22;9764;48.114;11.670;2023-07-20T15:23:44;28.10;85.60
19261;DHT22;9764;48.114;11.670;2023-07-20T15:26:12;28.00;85.60
19261;DHT22;9764;48.114;11.670;2023-07-20T15:28:41;28.00;85.60
19261;DHT22;9764;48.114;11.670;2023-07-20T15:31:09;28.00;85.50
19261;DHT22;9764;48.114;11.670;2023-07-20T15:33:37;28.00;85.60
19261;DHT22;9764;48.114;11.670;2023-07-20T15:36:05;28.00;85.40
19261;DHT22;9764;48.114;11.670;2023-07-20T15:38:35;28.00;85.80
19261;DHT22;9764;48.114;11.670;2023-07-20T15:41:04;28.00;85.50
19261;DHT22;9764;48.114;11.670;2023-07-20T15:43:32;28.00;86.00
19261;DHT22;9764;48.114;11.670;2023-07-20T15:46:09;28.00;85.80
19261;DHT22;9764;48.114;11.670;2023-07-20T15:48:50;28.00;85.00
19261;DHT22;9764;48.114;11.670;2023-07-20T15:51:18;28.00;84.00